Terminal Aerodrome Forecast
Issued by NWS

Home | Current Version | Previous Version | Text Only | Print | Product List | Glossary On
Versions: 1 2 3 4 5 6 7 8 9 10 11 12 13 14 15 16 17 18 19 20 21
000
FTUS43 KDLH 240540
TAFHIB
TAF
KHIB 240540Z 2406/2506 00000KT 1 1/2SM BR SKC
      TEMPO 2406/2408 1/2SM FG VV002
     FM240800 00000KT 1/2SM FG VV002
     FM241200 16005KT P6SM SKC
      TEMPO 2412/2413 1 1/2SM BR BKN002
     FM241800 18007KT P6SM SCT050
     FM250100 14004KT P6SM SCT250=

USA.gov is the U.S. government's official web portal to all federal, state and local government web resources and services.